sensor_id;sensor_type;location;lat;lon;timestamp;temperature;humidity
67141;DHT22;54058;52.010;5.546;2023-04-24T00:00:22;11.30;84.80
67141;DHT22;54058;52.010;5.546;2023-04-24T00:02:48;11.20;84.70
67141;DHT22;54058;52.010;5.546;2023-04-24T00:05:14;11.30;84.70
67141;DHT22;54058;52.010;5.546;2023-04-24T00:07:44;11.30;84.90
67141;DHT22;54058;52.010;5.546;2023-04-24T00:10:11;11.20;85.10
67141;DHT22;54058;52.010;5.546;2023-04-24T00:12:37;11.20;85.20
67141;DHT22;54058;52.010;5.546;2023-04-24T00:15:03;11.20;85.60
67141;DHT22;54058;52.010;5.546;2023-04-24T00:17:29;11.20;85.80
67141;DHT22;54058;52.010;5.546;2023-04-24T00:19:54;11.20;85.40
67141;DHT22;54058;52.010;5.546;2023-04-24T00:22:28;11.20;85.40
67141;DHT22;54058;52.010;5.546;2023-04-24T00:24:54;11.20;85.20
67141;DHT22;54058;52.010;5.546;2023-04-24T00:27:20;11.20;85.20
67141;DHT22;54058;52.010;5.546;2023-04-24T00:29:46;11.20;85.50
67141;DHT22;54058;52.010;5.546;2023-04-24T00:32:11;11.20;85.20
67141;DHT22;54058;52.010;5.546;2023-04-24T00:34:37;11.20;85.30
67141;DHT22;54058;52.010;5.546;2023-04-24T00:37:03;11.20;85.20
67141;DHT22;54058;52.010;5.546;2023-04-24T00:39:29;11.20;85.30
67141;DHT22;54058;52.010;5.546;2023-04-24T00:41:54;11.20;85.90
67141;DHT22;54058;52.010;5.546;2023-04-24T00:44:20;11.20;85.50
67141;DHT22;54058;52.010;5.546;2023-04-24T00:46:46;11.30;85.30
67141;DHT22;54058;52.010;5.546;2023-04-24T00:49:18;11.40;85.10
67141;DHT22;54058;52.010;5.546;2023-04-24T00:51:43;11.40;85.20
67141;DHT22;54058;52.010;5.546;2023-04-24T00:54:12;11.40;85.00
67141;DHT22;54058;52.010;5.546;2023-04-24T00:56:37;11.40;85.00
67141;DHT22;54058;52.010;5.546;2023-04-24T00:59:03;11.30;85.10
67141;DHT22;54058;52.010;5.546;2023-04-24T01:01:29;11.40;85.10
67141;DHT22;54058;52.010;5.546;2023-04-24T01:03:56;11.40;85.10
67141;DHT22;54058;52.010;5.546;2023-04-24T01:06:23;11.40;85.20
67141;DHT22;54058;52.010;5.546;2023-04-24T01:08:52;11.40;85.30
67141;DHT22;54058;52.010;5.546;2023-04-24T01:11:18;11.40;85.20
67141;DHT22;54058;52.010;5.546;2023-04-24T01:13:44;11.40;85.10
67141;DHT22;54058;52.010;5.546;2023-04-24T01:16:10;11.30;85.00
67141;DHT22;54058;52.010;5.546;2023-04-24T01:18:36;11.20;85.90
67141;DHT22;54058;52.010;5.546;2023-04-24T01:21:03;11.20;85.60
67141;DHT22;54058;52.010;5.546;2023-04-24T01:23:29;11.20;85.50
67141;DHT22;54058;52.010;5.546;2023-04-24T01:25:55;11.20;87.60
67141;DHT22;54058;52.010;5.546;2023-04-24T01:28:21;11.20;85.80
67141;DHT22;54058;52.010;5.546;2023-04-24T01:30:47;11.20;85.70
67141;DHT22;54058;52.010;5.546;2023-04-24T01:33:14;11.10;85.80
67141;DHT22;54058;52.010;5.546;2023-04-24T01:35:40;11.10;86.00
67141;DHT22;54058;52.010;5.546;2023-04-24T01:38:05;11.10;86.00
67141;DHT22;54058;52.010;5.546;2023-04-24T01:40:32;11.10;85.90
67141;DHT22;54058;52.010;5.546;2023-04-24T01:42:58;11.10;86.40
67141;DHT22;54058;52.010;5.546;2023-04-24T01:45:24;11.10;86.20
67141;DHT22;54058;52.010;5.546;2023-04-24T01:47:50;11.20;86.00
67141;DHT22;54058;52.010;5.546;2023-04-24T01:50:17;11.20;86.00
67141;DHT22;54058;52.010;5.546;2023-04-24T01:52:43;11.20;85.90
67141;DHT22;54058;52.010;5.546;2023-04-24T01:55:09;11.20;85.80
67141;DHT22;54058;52.010;5.546;2023-04-24T01:57:35;11.20;85.80
67141;DHT22;54058;52.010;5.546;2023-04-24T02:00:01;11.30;85.70
67141;DHT22;54058;52.010;5.546;2023-04-24T02:02:29;11.20;85.90
67141;DHT22;54058;52.010;5.546;2023-04-24T02:04:56;11.20;86.00
67141;DHT22;54058;52.010;5.546;2023-04-24T02:07:22;11.20;86.20
67141;DHT22;54058;52.010;5.546;2023-04-24T02:09:47;11.20;86.20
67141;DHT22;54058;52.010;5.546;2023-04-24T02:12:15;11.20;86.20
67141;DHT22;54058;52.010;5.546;2023-04-24T02:14:41;11.20;86.30
67141;DHT22;54058;52.010;5.546;2023-04-24T02:17:07;11.20;86.50
67141;DHT22;54058;52.010;5.546;2023-04-24T02:19:33;11.20;86.40
67141;DHT22;54058;52.010;5.546;2023-04-24T02:21:59;11.10;86.70
67141;DHT22;54058;52.010;5.546;2023-04-24T02:24:24;11.10;86.50
67141;DHT22;54058;52.010;5.546;2023-04-24T02:26:50;11.20;86.70
67141;DHT22;54058;52.010;5.546;2023-04-24T02:29:15;11.10;86.70
67141;DHT22;54058;52.010;5.546;2023-04-24T02:31:41;11.10;86.50
67141;DHT22;54058;52.010;5.546;2023-04-24T02:34:07;11.10;86.70
67141;DHT22;54058;52.010;5.546;2023-04-24T02:36:32;11.10;86.70
67141;DHT22;54058;52.010;5.546;2023-04-24T02:38:58;11.10;86.80
67141;DHT22;54058;52.010;5.546;2023-04-24T02:41:23;11.10;86.70
67141;DHT22;54058;52.010;5.546;2023-04-24T02:43:49;11.20;87.00
67141;DHT22;54058;52.010;5.546;2023-04-24T02:46:15;11.10;86.70
67141;DHT22;54058;52.010;5.546;2023-04-24T02:48:41;11.20;86.90
67141;DHT22;54058;52.010;5.546;2023-04-24T02:51:06;11.20;86.80
67141;DHT22;54058;52.010;5.546;2023-04-24T02:53:32;11.20;86.70
67141;DHT22;54058;52.010;5.546;2023-04-24T02:55:58;11.30;86.60
67141;DHT22;54058;52.010;5.546;2023-04-24T02:58:23;11.30;86.60
67141;DHT22;54058;52.010;5.546;2023-04-24T03:00:53;11.30;86.50
67141;DHT22;54058;52.010;5.546;2023-04-24T03:03:19;11.30;86.40
67141;DHT22;54058;52.010;5.546;2023-04-24T03:05:45;11.40;86.50
67141;DHT22;54058;52.010;5.546;2023-04-24T03:08:11;11.30;86.40
67141;DHT22;54058;52.010;5.546;2023-04-24T03:10:37;11.40;86.50
67141;DHT22;54058;52.010;5.546;2023-04-24T03:13:02;11.40;86.40
67141;DHT22;54058;52.010;5.546;2023-04-24T03:15:28;11.40;86.30
67141;DHT22;54058;52.010;5.546;2023-04-24T03:17:53;11.40;86.50
67141;DHT22;54058;52.010;5.546;2023-04-24T03:20:19;11.30;86.60
67141;DHT22;54058;52.010;5.546;2023-04-24T03:22:45;11.30;86.70
67141;DHT22;54058;52.010;5.546;2023-04-24T03:25:10;11.30;86.70
67141;DHT22;54058;52.010;5.546;2023-04-24T03:27:36;11.30;86.60
67141;DHT22;54058;52.010;5.546;2023-04-24T03:30:02;11.30;86.60
67141;DHT22;54058;52.010;5.546;2023-04-24T03:32:28;11.30;86.60
67141;DHT22;54058;52.010;5.546;2023-04-24T03:34:54;11.30;86.40
67141;DHT22;54058;52.010;5.546;2023-04-24T03:37:20;11.30;86.40
67141;DHT22;54058;52.010;5.546;2023-04-24T03:39:45;11.30;86.40
67141;DHT22;54058;52.010;5.546;2023-04-24T03:42:11;11.30;86.40
67141;DHT22;54058;52.010;5.546;2023-04-24T03:44:38;11.30;86.50
67141;DHT22;54058;52.010;5.546;2023-04-24T03:47:03;11.40;86.40
67141;DHT22;54058;52.010;5.546;2023-04-24T03:49:29;11.40;86.40
67141;DHT22;54058;52.010;5.546;2023-04-24T03:51:54;11.40;86.30
67141;DHT22;54058;52.010;5.546;2023-04-24T03:54:20;11.40;86.30
67141;DHT22;54058;52.010;5.546;2023-04-24T03:56:46;11.40;86.30
67141;DHT22;54058;52.010;5.546;2023-04-24T03:59:11;11.40;86.30
67141;DHT22;54058;52.010;5.546;2023-04-24T04:01:37;11.40;86.30
67141;DHT22;54058;52.010;5.546;2023-04-24T04:04:03;11.30;86.40
67141;DHT22;54058;52.010;5.546;2023-04-24T04:06:29;11.30;86.60
67141;DHT22;54058;52.010;5.546;2023-04-24T04:08:56;11.30;86.40
67141;DHT22;54058;52.010;5.546;2023-04-24T04:11:22;11.30;86.80
67141;DHT22;54058;52.010;5.546;2023-04-24T04:13:48;11.30;86.70
67141;DHT22;54058;52.010;5.546;2023-04-24T04:16:14;11.20;86.70
67141;DHT22;54058;52.010;5.546;2023-04-24T04:18:42;11.10;87.30
67141;DHT22;54058;52.010;5.546;2023-04-24T04:21:08;11.00;87.00
67141;DHT22;54058;52.010;5.546;2023-04-24T04:23:33;11.00;87.80
67141;DHT22;54058;52.010;5.546;2023-04-24T04:25:59;11.00;87.30
67141;DHT22;54058;52.010;5.546;2023-04-24T04:28:25;11.00;87.30
67141;DHT22;54058;52.010;5.546;2023-04-24T04:30:51;11.00;87.20
67141;DHT22;54058;52.010;5.546;2023-04-24T04:33:21;10.90;87.30
67141;DHT22;54058;52.010;5.546;2023-04-24T04:35:47;10.90;87.10
67141;DHT22;54058;52.010;5.546;2023-04-24T04:38:20;10.90;87.10
67141;DHT22;54058;52.010;5.546;2023-04-24T04:40:46;10.90;87.20
67141;DHT22;54058;52.010;5.546;2023-04-24T04:43:12;10.80;87.40
67141;DHT22;54058;52.010;5.546;2023-04-24T04:45:39;10.90;87.30
67141;DHT22;54058;52.010;5.546;2023-04-24T04:48:06;10.80;87.40
67141;DHT22;54058;52.010;5.546;2023-04-24T04:50:38;10.90;87.30
67141;DHT22;54058;52.010;5.546;2023-04-24T04:53:03;10.90;87.40
67141;DHT22;54058;52.010;5.546;2023-04-24T04:55:29;10.80;87.10
67141;DHT22;54058;52.010;5.546;2023-04-24T04:57:55;10.80;87.30
67141;DHT22;54058;52.010;5.546;2023-04-24T05:00:21;10.70;87.30
67141;DHT22;54058;52.010;5.546;2023-04-24T05:02:49;10.70;87.80
67141;DHT22;54058;52.010;5.546;2023-04-24T05:05:15;10.70;87.70
67141;DHT22;54058;52.010;5.546;2023-04-24T05:07:42;10.60;87.80
67141;DHT22;54058;52.010;5.546;2023-04-24T05:10:08;10.60;87.80
67141;DHT22;54058;52.010;5.546;2023-04-24T05:12:33;10.70;87.70
67141;DHT22;54058;52.010;5.546;2023-04-24T05:14:59;10.70;87.60
67141;DHT22;54058;52.010;5.546;2023-04-24T05:17:25;10.80;87.40
67141;DHT22;54058;52.010;5.546;2023-04-24T05:19:51;10.80;87.30
67141;DHT22;54058;52.010;5.546;2023-04-24T05:22:17;10.80;87.20
67141;DHT22;54058;52.010;5.546;2023-04-24T05:24:45;10.80;87.20
67141;DHT22;54058;52.010;5.546;2023-04-24T05:27:11;10.70;87.30
67141;DHT22;54058;52.010;5.546;2023-04-24T05:29:36;10.80;87.60
67141;DHT22;54058;52.010;5.546;2023-04-24T05:32:02;10.80;87.60
67141;DHT22;54058;52.010;5.546;2023-04-24T05:34:27;10.80;87.70
67141;DHT22;54058;52.010;5.546;2023-04-24T05:36:53;10.80;87.80
67141;DHT22;54058;52.010;5.546;2023-04-24T05:39:19;10.70;87.90
67141;DHT22;54058;52.010;5.546;2023-04-24T05:41:45;10.70;87.80
67141;DHT22;54058;52.010;5.546;2023-04-24T05:44:10;10.70;87.90
67141;DHT22;54058;52.010;5.546;2023-04-24T05:46:36;10.70;88.10
67141;DHT22;54058;52.010;5.546;2023-04-24T05:49:02;10.70;88.30
67141;DHT22;54058;52.010;5.546;2023-04-24T05:51:28;10.70;88.30
67141;DHT22;54058;52.010;5.546;2023-04-24T05:53:54;10.90;88.30
67141;DHT22;54058;52.010;5.546;2023-04-24T05:56:19;10.90;88.10
67141;DHT22;54058;52.010;5.546;2023-04-24T05:58:46;10.90;88.00
67141;DHT22;54058;52.010;5.546;2023-04-24T06:01:12;10.90;88.40
67141;DHT22;54058;52.010;5.546;2023-04-24T06:03:40;10.90;88.10
67141;DHT22;54058;52.010;5.546;2023-04-24T06:06:06;10.90;88.00
67141;DHT22;54058;52.010;5.546;2023-04-24T06:08:32;10.90;88.20
67141;DHT22;54058;52.010;5.546;2023-04-24T06:10:58;10.90;88.40
67141;DHT22;54058;52.010;5.546;2023-04-24T06:13:24;10.90;88.40
67141;DHT22;54058;52.010;5.546;2023-04-24T06:15:49;10.90;88.50
67141;DHT22;54058;52.010;5.546;2023-04-24T06:18:15;10.90;88.40
67141;DHT22;54058;52.010;5.546;2023-04-24T06:20:41;10.80;88.60
67141;DHT22;54058;52.010;5.546;2023-04-24T06:23:06;10.80;88.50
67141;DHT22;54058;52.010;5.546;2023-04-24T06:25:32;10.80;88.60
67141;DHT22;54058;52.010;5.546;2023-04-24T06:27:58;10.80;88.60
67141;DHT22;54058;52.010;5.546;2023-04-24T06:30:23;10.80;88.40
67141;DHT22;54058;52.010;5.546;2023-04-24T06:32:49;10.70;88.50
67141;DHT22;54058;52.010;5.546;2023-04-24T06:35:15;10.70;88.60
67141;DHT22;54058;52.010;5.546;2023-04-24T06:37:41;10.70;88.80
67141;DHT22;54058;52.010;5.546;2023-04-24T06:40:07;10.70;88.80
67141;DHT22;54058;52.010;5.546;2023-04-24T06:42:33;10.60;89.00
67141;DHT22;54058;52.010;5.546;2023-04-24T06:45:00;10.60;89.10
67141;DHT22;54058;52.010;5.546;2023-04-24T06:47:26;10.60;89.00
67141;DHT22;54058;52.010;5.546;2023-04-24T06:49:54;10.60;89.00
67141;DHT22;54058;52.010;5.546;2023-04-24T06:52:20;10.60;89.00
67141;DHT22;54058;52.010;5.546;2023-04-24T06:54:46;10.60;88.90
67141;DHT22;54058;52.010;5.546;2023-04-24T06:57:12;10.50;88.80
67141;DHT22;54058;52.010;5.546;2023-04-24T06:59:40;10.50;89.00
67141;DHT22;54058;52.010;5.546;2023-04-24T07:02:17;10.50;89.30
67141;DHT22;54058;52.010;5.546;2023-04-24T07:05:32;10.40;89.50
67141;DHT22;54058;52.010;5.546;2023-04-24T07:08:07;10.40;90.10
67141;DHT22;54058;52.010;5.546;2023-04-24T07:10:32;10.30;90.00
67141;DHT22;54058;52.010;5.546;2023-04-24T07:13:00;10.30;89.80
67141;DHT22;54058;52.010;5.546;2023-04-24T07:15:26;10.20;90.30
67141;DHT22;54058;52.010;5.546;2023-04-24T07:17:52;10.20;90.20
67141;DHT22;54058;52.010;5.546;2023-04-24T07:20:18;10.20;90.10
67141;DHT22;54058;52.010;5.546;2023-04-24T07:22:43;10.20;90.10
67141;DHT22;54058;52.010;5.546;2023-04-24T07:25:09;10.10;90.60
67141;DHT22;54058;52.010;5.546;2023-04-24T07:27:35;10.10;90.30
67141;DHT22;54058;52.010;5.546;2023-04-24T07:30:03;10.10;90.40
67141;DHT22;54058;52.010;5.546;2023-04-24T07:32:29;10.10;90.50
67141;DHT22;54058;52.010;5.546;2023-04-24T07:34:54;10.00;91.90
67141;DHT22;54058;52.010;5.546;2023-04-24T07:37:20;10.00;90.50
67141;DHT22;54058;52.010;5.546;2023-04-24T07:39:47;10.00;90.40
67141;DHT22;54058;52.010;5.546;2023-04-24T07:42:12;10.00;90.30
67141;DHT22;54058;52.010;5.546;2023-04-24T07:44:38;9.90;90.10
67141;DHT22;54058;52.010;5.546;2023-04-24T07:47:04;9.90;90.40
67141;DHT22;54058;52.010;5.546;2023-04-24T07:49:30;9.90;90.00
67141;DHT22;54058;52.010;5.546;2023-04-24T07:51:55;10.00;90.20
67141;DHT22;54058;52.010;5.546;2023-04-24T07:54:21;10.00;90.10
67141;DHT22;54058;52.010;5.546;2023-04-24T07:56:46;10.00;90.10
67141;DHT22;54058;52.010;5.546;2023-04-24T07:59:12;9.90;90.00
67141;DHT22;54058;52.010;5.546;2023-04-24T08:01:38;10.00;90.40
67141;DHT22;54058;52.010;5.546;2023-04-24T08:04:03;9.90;90.10
67141;DHT22;54058;52.010;5.546;2023-04-24T08:06:29;10.00;90.20
67141;DHT22;54058;52.010;5.546;2023-04-24T08:08:56;10.00;90.30
67141;DHT22;54058;52.010;5.546;2023-04-24T08:11:21;9.90;90.20
67141;DHT22;54058;52.010;5.546;2023-04-24T08:13:47;10.00;90.20
67141;DHT22;54058;52.010;5.546;2023-04-24T08:16:12;10.10;90.10
67141;DHT22;54058;52.010;5.546;2023-04-24T08:18:38;10.10;90.10
67141;DHT22;54058;52.010;5.546;2023-04-24T08:21:04;10.20;90.10
67141;DHT22;54058;52.010;5.546;2023-04-24T08:23:30;10.20;90.10
67141;DHT22;54058;52.010;5.546;2023-04-24T08:25:55;10.20;90.20
67141;DHT22;54058;52.010;5.546;2023-04-24T08:28:22;10.20;90.20
67141;DHT22;54058;52.010;5.546;2023-04-24T08:30:47;10.20;90.10
67141;DHT22;54058;52.010;5.546;2023-04-24T08:33:14;10.20;90.20
67141;DHT22;54058;52.010;5.546;2023-04-24T08:35:40;10.10;90.20
67141;DHT22;54058;52.010;5.546;2023-04-24T08:38:05;10.20;90.10
67141;DHT22;54058;52.010;5.546;2023-04-24T08:40:34;10.20;90.10
67141;DHT22;54058;52.010;5.546;2023-04-24T08:43:00;10.10;90.20
67141;DHT22;54058;52.010;5.546;2023-04-24T08:45:26;10.10;90.30
67141;DHT22;54058;52.010;5.546;2023-04-24T08:47:53;10.10;90.40
67141;DHT22;54058;52.010;5.546;2023-04-24T08:50:21;10.10;90.40
67141;DHT22;54058;52.010;5.546;2023-04-24T08:52:49;10.10;90.40
67141;DHT22;54058;52.010;5.546;2023-04-24T08:55:16;10.10;90.50
67141;DHT22;54058;52.010;5.546;2023-04-24T08:57:48;10.20;90.40
67141;DHT22;54058;52.010;5.546;2023-04-24T09:00:15;10.20;90.30
67141;DHT22;54058;52.010;5.546;2023-04-24T09:02:42;10.20;90.20
67141;DHT22;54058;52.010;5.546;2023-04-24T09:05:10;10.20;90.20
67141;DHT22;54058;52.010;5.546;2023-04-24T09:07:37;10.20;90.40
67141;DHT22;54058;52.010;5.546;2023-04-24T09:10:05;10.20;90.50
67141;DHT22;54058;52.010;5.546;2023-04-24T09:12:32;10.30;90.40
67141;DHT22;54058;52.010;5.546;2023-04-24T09:14:58;10.40;91.30
67141;DHT22;54058;52.010;5.546;2023-04-24T09:17:25;10.40;90.50
67141;DHT22;54058;52.010;5.546;2023-04-24T09:19:52;10.60;90.30
67141;DHT22;54058;52.010;5.546;2023-04-24T09:22:18;10.60;90.30
67141;DHT22;54058;52.010;5.546;2023-04-24T09:24:45;10.70;90.10
67141;DHT22;54058;52.010;5.546;2023-04-24T09:27:11;10.80;90.00
67141;DHT22;54058;52.010;5.546;2023-04-24T09:29:38;10.80;90.00
67141;DHT22;54058;52.010;5.546;2023-04-24T09:32:20;10.80;90.00
67141;DHT22;54058;52.010;5.546;2023-04-24T09:37:44;10.70;89.80
67141;DHT22;54058;52.010;5.546;2023-04-24T09:40:17;10.60;90.00
67141;DHT22;54058;52.010;5.546;2023-04-24T09:42:54;10.60;90.00
67141;DHT22;54058;52.010;5.546;2023-04-24T09:45:21;10.70;90.20
67141;DHT22;54058;52.010;5.546;2023-04-24T09:47:51;10.70;90.20
67141;DHT22;54058;52.010;5.546;2023-04-24T09:50:17;10.90;90.20
67141;DHT22;54058;52.010;5.546;2023-04-24T09:52:44;11.00;90.20
67141;DHT22;54058;52.010;5.546;2023-04-24T09:55:18;11.20;90.10
67141;DHT22;54058;52.010;5.546;2023-04-24T09:57:49;11.40;90.10
67141;DHT22;54058;52.010;5.546;2023-04-24T10:00:33;11.60;90.00
67141;DHT22;54058;52.010;5.546;2023-04-24T10:03:04;11.80;90.10
67141;DHT22;54058;52.010;5.546;2023-04-24T10:05:31;11.90;89.80
67141;DHT22;54058;52.010;5.546;2023-04-24T10:10:29;12.10;89.50
67141;DHT22;54058;52.010;5.546;2023-04-24T10:12:55;12.10;89.20
67141;DHT22;54058;52.010;5.546;2023-04-24T10:15:21;12.00;89.10
67141;DHT22;54058;52.010;5.546;2023-04-24T10:17:51;12.00;89.20
67141;DHT22;54058;52.010;5.546;2023-04-24T10:20:27;11.90;89.30
67141;DHT22;54058;52.010;5.546;2023-04-24T10:22:56;12.00;89.30
67141;DHT22;54058;52.010;5.546;2023-04-24T10:25:27;12.00;89.20
67141;DHT22;54058;52.010;5.546;2023-04-24T10:27:53;12.00;89.40
67141;DHT22;54058;52.010;5.546;2023-04-24T10:30:23;12.10;89.30
67141;DHT22;54058;52.010;5.546;2023-04-24T10:32:49;12.20;89.20
67141;DHT22;54058;52.010;5.546;2023-04-24T10:35:15;12.30;89.30
67141;DHT22;54058;52.010;5.546;2023-04-24T10:37:48;12.40;89.00
67141;DHT22;54058;52.010;5.546;2023-04-24T10:40:19;12.40;89.00
67141;DHT22;54058;52.010;5.546;2023-04-24T10:42:51;12.40;88.40
67141;DHT22;54058;52.010;5.546;2023-04-24T10:45:18;12.20;88.30
67141;DHT22;54058;52.010;5.546;2023-04-24T10:47:53;12.00;88.00
67141;DHT22;54058;52.010;5.546;2023-04-24T10:50:19;11.90;88.20
67141;DHT22;54058;52.010;5.546;2023-04-24T10:52:49;11.70;88.30
67141;DHT22;54058;52.010;5.546;2023-04-24T10:55:45;11.80;89.10
67141;DHT22;54058;52.010;5.546;2023-04-24T10:58:11;11.90;87.80
67141;DHT22;54058;52.010;5.546;2023-04-24T11:00:39;12.10;88.60
67141;DHT22;54058;52.010;5.546;2023-04-24T11:08:26;12.30;87.80
67141;DHT22;54058;52.010;5.546;2023-04-24T11:11:00;12.30;87.20
67141;DHT22;54058;52.010;5.546;2023-04-24T11:16:29;12.50;87.90
67141;DHT22;54058;52.010;5.546;2023-04-24T11:21:40;12.60;87.50
67141;DHT22;54058;52.010;5.546;2023-04-24T11:24:26;12.60;85.30
67141;DHT22;54058;52.010;5.546;2023-04-24T11:27:06;12.80;86.50
67141;DHT22;54058;52.010;5.546;2023-04-24T11:29:47;12.90;87.20
67141;DHT22;54058;52.010;5.546;2023-04-24T11:35:08;12.80;87.10
67141;DHT22;54058;52.010;5.546;2023-04-24T11:37:39;12.70;87.10
67141;DHT22;54058;52.010;5.546;2023-04-24T11:40:06;12.50;86.90
67141;DHT22;54058;52.010;5.546;2023-04-24T11:42:46;12.30;87.10
67141;DHT22;54058;52.010;5.546;2023-04-24T11:45:14;12.20;86.20
67141;DHT22;54058;52.010;5.546;2023-04-24T11:47:41;12.00;87.10
67141;DHT22;54058;52.010;5.546;2023-04-24T11:50:09;11.90;87.60
67141;DHT22;54058;52.010;5.546;2023-04-24T11:52:40;11.80;87.90
67141;DHT22;54058;52.010;5.546;2023-04-24T11:57:43;11.80;86.90
67141;DHT22;54058;52.010;5.546;2023-04-24T12:00:17;11.70;87.60
67141;DHT22;54058;52.010;5.546;2023-04-24T12:02:44;11.60;87.70
67141;DHT22;54058;52.010;5.546;2023-04-24T12:05:22;11.60;87.90
67141;DHT22;54058;52.010;5.546;2023-04-24T12:07:48;11.80;88.00
67141;DHT22;54058;52.010;5.546;2023-04-24T12:10:14;11.90;88.30
67141;DHT22;54058;52.010;5.546;2023-04-24T12:12:40;12.10;87.50
67141;DHT22;54058;52.010;5.546;2023-04-24T12:15:09;12.30;87.70
67141;DHT22;54058;52.010;5.546;2023-04-24T12:17:35;12.50;86.70
67141;DHT22;54058;52.010;5.546;2023-04-24T12:20:07;12.70;86.20
67141;DHT22;54058;52.010;5.546;2023-04-24T12:22:56;12.80;85.80
67141;DHT22;54058;52.010;5.546;2023-04-24T12:25:24;12.90;85.00
67141;DHT22;54058;52.010;5.546;2023-04-24T12:27:54;12.90;85.70
67141;DHT22;54058;52.010;5.546;2023-04-24T12:30:21;12.90;85.30
67141;DHT22;54058;52.010;5.546;2023-04-24T12:32:48;12.80;85.60
67141;DHT22;54058;52.010;5.546;2023-04-24T12:35:20;12.70;85.30
67141;DHT22;54058;52.010;5.546;2023-04-24T12:37:49;12.70;85.30
67141;DHT22;54058;52.010;5.546;2023-04-24T12:40:16;12.60;85.30
67141;DHT22;54058;52.010;5.546;2023-04-24T12:42:46;12.60;85.50
67141;DHT22;54058;52.010;5.546;2023-04-24T12:45:13;12.60;85.20
67141;DHT22;54058;52.010;5.546;2023-04-24T12:47:39;12.70;85.70
67141;DHT22;54058;52.010;5.546;2023-04-24T12:50:10;12.90;85.70
67141;DHT22;54058;52.010;5.546;2023-04-24T12:52:36;12.90;84.80
67141;DHT22;54058;52.010;5.546;2023-04-24T12:55:02;13.00;85.30
67141;DHT22;54058;52.010;5.546;2023-04-24T12:57:29;13.00;85.20
67141;DHT22;54058;52.010;5.546;2023-04-24T12:59:56;13.10;85.20
67141;DHT22;54058;52.010;5.546;2023-04-24T13:02:22;13.00;75.60
67141;DHT22;54058;52.010;5.546;2023-04-24T13:04:52;13.00;84.20
67141;DHT22;54058;52.010;5.546;2023-04-24T13:07:19;12.80;84.20
67141;DHT22;54058;52.010;5.546;2023-04-24T13:09:45;12.70;84.30
67141;DHT22;54058;52.010;5.546;2023-04-24T13:12:11;12.70;84.30
67141;DHT22;54058;52.010;5.546;2023-04-24T13:14:38;12.60;83.50
67141;DHT22;54058;52.010;5.546;2023-04-24T13:17:04;12.60;84.30
67141;DHT22;54058;52.010;5.546;2023-04-24T13:19:35;12.60;83.90
67141;DHT22;54058;52.010;5.546;2023-04-24T13:22:02;12.60;80.10
67141;DHT22;54058;52.010;5.546;2023-04-24T13:24:27;12.60;83.90
67141;DHT22;54058;52.010;5.546;2023-04-24T13:26:53;12.60;83.90
67141;DHT22;54058;52.010;5.546;2023-04-24T13:29:19;12.70;83.70
67141;DHT22;54058;52.010;5.546;2023-04-24T13:31:46;12.50;83.00
67141;DHT22;54058;52.010;5.546;2023-04-24T13:34:13;12.40;83.20
67141;DHT22;54058;52.010;5.546;2023-04-24T13:36:38;12.40;83.90
67141;DHT22;54058;52.010;5.546;2023-04-24T13:39:05;12.50;82.90
67141;DHT22;54058;52.010;5.546;2023-04-24T13:41:33;12.60;83.40
67141;DHT22;54058;52.010;5.546;2023-04-24T13:43:59;12.70;82.40
67141;DHT22;54058;52.010;5.546;2023-04-24T13:46:24;12.70;82.00
67141;DHT22;54058;52.010;5.546;2023-04-24T13:48:50;12.80;81.40
67141;DHT22;54058;52.010;5.546;2023-04-24T13:51:16;12.90;81.10
67141;DHT22;54058;52.010;5.546;2023-04-24T13:53:42;12.90;80.40
67141;DHT22;54058;52.010;5.546;2023-04-24T13:56:07;13.00;80.80
67141;DHT22;54058;52.010;5.546;2023-04-24T13:58:34;13.00;80.00
67141;DHT22;54058;52.010;5.546;2023-04-24T14:01:02;13.00;80.80
67141;DHT22;54058;52.010;5.546;2023-04-24T14:03:28;13.10;80.30
67141;DHT22;54058;52.010;5.546;2023-04-24T14:05:54;13.10;80.00
67141;DHT22;54058;52.010;5.546;2023-04-24T14:08:20;13.20;79.90
67141;DHT22;54058;52.010;5.546;2023-04-24T14:10:48;13.20;78.90
67141;DHT22;54058;52.010;5.546;2023-04-24T14:13:13;13.20;78.30
67141;DHT22;54058;52.010;5.546;2023-04-24T14:15:39;13.10;77.50
67141;DHT22;54058;52.010;5.546;2023-04-24T14:18:05;13.10;78.50
67141;DHT22;54058;52.010;5.546;2023-04-24T14:20:31;13.00;78.30
67141;DHT22;54058;52.010;5.546;2023-04-24T14:22:57;12.90;78.50
67141;DHT22;54058;52.010;5.546;2023-04-24T14:25:26;12.90;78.30
67141;DHT22;54058;52.010;5.546;2023-04-24T14:27:51;13.00;78.90
67141;DHT22;54058;52.010;5.546;2023-04-24T14:30:18;13.10;79.00
67141;DHT22;54058;52.010;5.546;2023-04-24T14:32:44;13.10;78.20
67141;DHT22;54058;52.010;5.546;2023-04-24T14:35:09;13.20;78.20
67141;DHT22;54058;52.010;5.546;2023-04-24T14:37:36;13.20;77.90
67141;DHT22;54058;52.010;5.546;2023-04-24T14:40:02;13.30;78.00
67141;DHT22;54058;52.010;5.546;2023-04-24T14:42:28;13.30;77.20
67141;DHT22;54058;52.010;5.546;2023-04-24T14:44:54;13.20;77.50
67141;DHT22;54058;52.010;5.546;2023-04-24T14:47:20;13.20;78.10
67141;DHT22;54058;52.010;5.546;2023-04-24T14:49:49;13.20;78.00
67141;DHT22;54058;52.010;5.546;2023-04-24T14:52:14;13.10;77.70
67141;DHT22;54058;52.010;5.546;2023-04-24T14:54:41;13.10;77.20
67141;DHT22;54058;52.010;5.546;2023-04-24T14:57:07;13.10;77.70
67141;DHT22;54058;52.010;5.546;2023-04-24T14:59:33;13.00;77.60
67141;DHT22;54058;52.010;5.546;2023-04-24T15:01:58;13.00;78.40
67141;DHT22;54058;52.010;5.546;2023-04-24T15:04:24;12.90;77.10
67141;DHT22;54058;52.010;5.546;2023-04-24T15:06:54;12.80;77.70
67141;DHT22;54058;52.010;5.546;2023-04-24T15:09:21;12.70;78.50
67141;DHT22;54058;52.010;5.546;2023-04-24T15:11:48;12.70;78.10
67141;DHT22;54058;52.010;5.546;2023-04-24T15:14:14;12.70;77.80
67141;DHT22;54058;52.010;5.546;2023-04-24T15:16:40;12.60;78.30
67141;DHT22;54058;52.010;5.546;2023-04-24T15:19:05;12.60;78.00
67141;DHT22;54058;52.010;5.546;2023-04-24T15:21:31;12.60;78.10
67141;DHT22;54058;52.010;5.546;2023-04-24T15:23:57;12.60;77.50
67141;DHT22;54058;52.010;5.546;2023-04-24T15:26:24;12.60;78.00
67141;DHT22;54058;52.010;5.546;2023-04-24T15:28:51;12.70;78.30
67141;DHT22;54058;52.010;5.546;2023-04-24T15:31:17;12.70;78.90
67141;DHT22;54058;52.010;5.546;2023-04-24T15:33:43;12.70;78.20
67141;DHT22;54058;52.010;5.546;2023-04-24T15:36:09;12.70;78.40
67141;DHT22;54058;52.010;5.546;2023-04-24T15:38:35;12.80;77.80
67141;DHT22;54058;52.010;5.546;2023-04-24T15:41:01;12.80;78.10
67141;DHT22;54058;52.010;5.546;2023-04-24T15:43:26;12.80;78.20
67141;DHT22;54058;52.010;5.546;2023-04-24T15:45:55;12.80;77.40
67141;DHT22;54058;52.010;5.546;2023-04-24T15:48:21;12.80;77.40
67141;DHT22;54058;52.010;5.546;2023-04-24T15:50:47;12.70;76.90